createdAt,value
2022-10-01T00:01:03.388Z,0
2022-10-01T00:02:09.759Z,0
2022-10-01T00:03:16.120Z,0
2022-10-01T00:04:22.500Z,0
2022-10-01T00:05:28.878Z,0
2022-10-01T00:06:35.258Z,0
2022-10-01T00:07:41.635Z,0
2022-10-01T00:08:48.012Z,0
2022-10-01T00:09:54.393Z,0
2022-10-01T00:11:00.767Z,0
2022-10-01T00:12:07.269Z,0
2022-10-01T00:13:13.764Z,0
2022-10-01T00:14:20.262Z,0
2022-10-01T00:15:26.767Z,0
2022-10-01T00:16:33.271Z,0
2022-10-01T00:17:39.773Z,0
2022-10-01T00:18:46.284Z,0
2022-10-01T00:19:52.784Z,0
2022-10-01T00:20:59.291Z,0
2022-10-01T00:22:05.793Z,0
2022-10-01T00:23:12.296Z,0
2022-10-01T00:24:18.799Z,0
2022-10-01T00:25:25.309Z,0
2022-10-01T00:26:32.058Z,0
2022-10-01T00:27:37.658Z,0
2022-10-01T00:28:43.966Z,0
2022-10-01T00:29:50.261Z,0
2022-10-01T00:30:56.560Z,0
2022-10-01T00:32:02.857Z,0
2022-10-01T00:33:09.167Z,0
2022-10-01T00:34:15.465Z,0
2022-10-01T00:35:21.763Z,0
2022-10-01T00:36:28.057Z,0
2022-10-01T00:37:34.364Z,0
2022-10-01T00:38:40.648Z,0
2022-10-01T00:39:46.955Z,0
2022-10-01T00:40:53.249Z,0
2022-10-01T00:41:59.545Z,0
2022-10-01T00:43:05.853Z,0
2022-10-01T00:44:12.154Z,0
2022-10-01T00:45:18.463Z,0
2022-10-01T00:46:24.756Z,0
2022-10-01T00:47:31.059Z,0
2022-10-01T00:48:37.357Z,0
2022-10-01T00:49:43.659Z,0
2022-10-01T00:50:49.961Z,0
2022-10-01T00:51:56.279Z,0
2022-10-01T00:53:02.574Z,0
2022-10-01T00:54:08.868Z,0
2022-10-01T00:55:15.253Z,0
2022-10-01T00:56:21.632Z,0
2022-10-01T00:57:28.012Z,0
2022-10-01T00:58:34.395Z,0
2022-10-01T00:59:40.776Z,0
2022-10-01T01:00:47.135Z,0
2022-10-01T01:01:53.520Z,0
2022-10-01T01:02:59.902Z,0
2022-10-01T01:04:06.268Z,0
2022-10-01T01:05:12.656Z,0
2022-10-01T01:06:19.033Z,0
2022-10-01T01:07:25.408Z,0
2022-10-01T01:08:31.784Z,0
2022-10-01T01:09:38.295Z,0
2022-10-01T01:10:44.791Z,0
2022-10-01T01:11:51.285Z,0
2022-10-01T01:12:57.780Z,0
2022-10-01T01:14:04.287Z,0
2022-10-01T01:15:10.782Z,0
2022-10-01T01:16:16.211Z,0
2022-10-01T01:17:22.514Z,0
2022-10-01T01:18:28.814Z,0
2022-10-01T01:19:35.104Z,0
2022-10-01T01:20:41.431Z,0
2022-10-01T01:21:47.719Z,0
2022-10-01T01:22:54.015Z,0
2022-10-01T01:24:00.321Z,0
2022-10-01T01:25:06.619Z,0
2022-10-01T01:26:12.924Z,0
2022-10-01T01:27:19.228Z,0
2022-10-01T01:28:25.524Z,0
2022-10-01T01:29:31.820Z,0
2022-10-01T01:30:38.119Z,0
2022-10-01T01:31:44.420Z,0
2022-10-01T01:32:50.716Z,0
2022-10-01T01:33:57.024Z,0
2022-10-01T01:35:03.319Z,0
2022-10-01T01:36:09.619Z,0
2022-10-01T01:37:15.917Z,0
2022-10-01T01:38:22.210Z,0
2022-10-01T01:39:28.510Z,0
2022-10-01T01:40:34.800Z,0
2022-10-01T01:41:41.097Z,0
2022-10-01T01:42:47.423Z,0
2022-10-01T01:43:53.785Z,0
2022-10-01T01:45:00.146Z,0
2022-10-01T01:46:06.513Z,0
2022-10-01T01:47:12.885Z,0
2022-10-01T01:48:19.273Z,0
2022-10-01T01:49:25.680Z,0
2022-10-01T01:50:32.020Z,0
2022-10-01T01:51:38.395Z,0
2022-10-01T01:52:44.779Z,0
2022-10-01T01:53:51.148Z,0
2022-10-01T01:54:57.510Z,0
2022-10-01T01:56:03.896Z,0
2022-10-01T01:57:10.269Z,0
2022-10-01T01:58:16.769Z,0
2022-10-01T01:59:23.258Z,0
2022-10-01T02:00:29.754Z,0
2022-10-01T02:01:36.253Z,0
2022-10-01T02:02:42.745Z,0
2022-10-01T02:03:49.242Z,0
2022-10-01T02:04:55.737Z,0
2022-10-01T02:06:01.161Z,0
2022-10-01T02:07:07.460Z,0
2022-10-01T02:08:13.759Z,0
2022-10-01T02:09:20.055Z,0
2022-10-01T02:10:26.353Z,0
2022-10-01T02:11:32.668Z,0
2022-10-01T02:12:38.941Z,0
2022-10-01T02:13:45.251Z,0
2022-10-01T02:14:51.541Z,0
2022-10-01T02:15:57.838Z,0
2022-10-01T02:17:04.130Z,0
2022-10-01T02:18:10.425Z,0
2022-10-01T02:19:16.726Z,0
2022-10-01T02:20:23.033Z,0
2022-10-01T02:21:29.327Z,0
2022-10-01T02:22:35.618Z,0
2022-10-01T02:23:41.913Z,0
2022-10-01T02:24:48.208Z,0
2022-10-01T02:25:54.495Z,0
2022-10-01T02:27:00.790Z,0
2022-10-01T02:28:07.082Z,0
2022-10-01T02:29:13.373Z,0
2022-10-01T02:30:19.659Z,0
2022-10-01T02:31:25.950Z,0
2022-10-01T02:32:32.241Z,0
2022-10-01T02:33:38.613Z,0
2022-10-01T02:34:44.982Z,0
2022-10-01T02:35:51.352Z,0
2022-10-01T02:36:57.726Z,0
2022-10-01T02:38:04.084Z,0
2022-10-01T02:39:10.451Z,0
2022-10-01T02:40:16.805Z,0
2022-10-01T02:41:23.161Z,0
2022-10-01T02:42:29.534Z,0
2022-10-01T02:43:35.898Z,0
2022-10-01T02:44:42.259Z,0
2022-10-01T02:45:48.620Z,0
2022-10-01T02:46:54.975Z,0
2022-10-01T02:48:01.472Z,0
2022-10-01T02:49:06.887Z,0
2022-10-01T02:50:13.172Z,0
2022-10-01T02:51:19.461Z,0
2022-10-01T02:52:25.745Z,0
2022-10-01T02:53:32.026Z,0
2022-10-01T02:54:38.313Z,0
2022-10-01T02:55:44.599Z,0
2022-10-01T02:56:50.881Z,0
2022-10-01T02:57:57.165Z,0
2022-10-01T02:59:03.446Z,0
2022-10-01T03:00:09.748Z,0
2022-10-01T03:01:16.001Z,0
2022-10-01T03:02:22.283Z,0
2022-10-01T03:03:28.568Z,0
2022-10-01T03:04:34.847Z,0
2022-10-01T03:05:41.139Z,0
2022-10-01T03:06:47.413Z,0
2022-10-01T03:07:53.705Z,0
2022-10-01T03:08:59.975Z,0
2022-10-01T03:10:06.269Z,0
2022-10-01T03:11:12.556Z,0
2022-10-01T03:12:18.844Z,0
2022-10-01T03:13:25.128Z,0
2022-10-01T03:14:31.417Z,0
2022-10-01T03:15:37.715Z,0
2022-10-01T03:16:44.057Z,0
2022-10-01T03:17:50.418Z,0
2022-10-01T03:18:56.777Z,0
2022-10-01T03:20:03.141Z,0
2022-10-01T03:21:09.497Z,0
2022-10-01T03:22:15.861Z,0
2022-10-01T03:23:22.212Z,0
2022-10-01T03:24:28.572Z,0
2022-10-01T03:25:34.923Z,0
2022-10-01T03:26:41.275Z,0
2022-10-01T03:27:47.618Z,0
2022-10-01T03:28:53.991Z,0
2022-10-01T03:30:00.330Z,0
2022-10-01T03:31:06.806Z,0
2022-10-01T03:32:12.219Z,0
2022-10-01T03:33:18.498Z,0
2022-10-01T03:34:24.764Z,0
2022-10-01T03:35:31.051Z,0
2022-10-01T03:36:37.308Z,0
2022-10-01T03:37:43.585Z,0
2022-10-01T03:38:49.858Z,0
2022-10-01T03:39:56.129Z,0
2022-10-01T03:41:02.402Z,0
2022-10-01T03:42:08.679Z,0
2022-10-01T03:43:14.950Z,0
2022-10-01T03:44:21.232Z,0
2022-10-01T03:45:27.515Z,0
2022-10-01T03:46:33.767Z,0
2022-10-01T03:47:40.052Z,0
2022-10-01T03:48:46.329Z,0
2022-10-01T03:49:52.602Z,0
2022-10-01T03:50:58.883Z,0
2022-10-01T03:52:05.154Z,0
2022-10-01T03:53:11.430Z,0
2022-10-01T03:54:17.715Z,0
2022-10-01T03:55:23.983Z,0
2022-10-01T03:56:30.242Z,0
2022-10-01T03:57:36.527Z,0
2022-10-01T03:58:42.806Z,0
2022-10-01T03:59:49.162Z,0
2022-10-01T04:00:55.511Z,0
2022-10-01T04:02:01.865Z,0
2022-10-01T04:03:08.213Z,0
2022-10-01T04:04:14.568Z,0
2022-10-01T04:05:20.917Z,0
2022-10-01T04:06:27.271Z,0
2022-10-01T04:07:33.623Z,0
2022-10-01T04:08:39.971Z,0
2022-10-01T04:09:46.317Z,0
2022-10-01T04:10:52.674Z,0
2022-10-01T04:11:59.014Z,0
2022-10-01T04:13:05.361Z,0
2022-10-01T04:14:11.891Z,0
2022-10-01T04:15:17.255Z,0
2022-10-01T04:16:23.528Z,0
2022-10-01T04:17:29.809Z,0
2022-10-01T04:18:36.094Z,0
2022-10-01T04:19:42.363Z,0
2022-10-01T04:20:48.662Z,0
2022-10-01T04:21:54.910Z,0
2022-10-01T04:23:01.189Z,0
2022-10-01T04:24:07.473Z,0
2022-10-01T04:25:13.741Z,0
2022-10-01T04:26:20.018Z,0
2022-10-01T04:27:26.288Z,0
2022-10-01T04:28:32.571Z,0
2022-10-01T04:29:38.835Z,0
2022-10-01T04:30:45.113Z,0
2022-10-01T04:31:51.392Z,0
2022-10-01T04:32:57.672Z,0
2022-10-01T04:34:03.934Z,0
2022-10-01T04:35:10.207Z,0
2022-10-01T04:36:16.477Z,3
2022-10-01T04:37:22.756Z,4
2022-10-01T04:38:29.023Z,0
2022-10-01T04:39:35.294Z,0
2022-10-01T04:40:41.559Z,0
2022-10-01T04:41:47.824Z,4
2022-10-01T04:42:54.194Z,1
2022-10-01T04:44:00.512Z,1
2022-10-01T04:45:06.864Z,1
2022-10-01T04:46:13.208Z,1
2022-10-01T04:47:19.555Z,3
2022-10-01T04:48:25.896Z,2
2022-10-01T04:49:32.233Z,3
2022-10-01T04:50:38.582Z,4
2022-10-01T04:51:44.935Z,4
2022-10-01T04:52:51.269Z,11
2022-10-01T04:53:57.620Z,9
2022-10-01T04:55:03.960Z,12
2022-10-01T04:56:10.301Z,17
2022-10-01T04:57:16.772Z,24
2022-10-01T04:58:22.187Z,35
2022-10-01T04:59:28.443Z,48
2022-10-01T05:00:34.722Z,63
2022-10-01T05:01:41.050Z,76
2022-10-01T05:02:47.268Z,90
2022-10-01T05:03:53.527Z,96
2022-10-01T05:04:59.793Z,107
2022-10-01T05:06:06.061Z,111
2022-10-01T05:07:12.324Z,120
2022-10-01T05:08:18.599Z,120
2022-10-01T05:09:24.859Z,189
2022-10-01T05:10:31.174Z,216
2022-10-01T05:11:37.383Z,213
2022-10-01T05:12:43.659Z,238
2022-10-01T05:13:49.915Z,251
2022-10-01T05:14:56.178Z,251
2022-10-01T05:16:02.456Z,275
2022-10-01T05:17:08.715Z,277
2022-10-01T05:18:14.986Z,269
2022-10-01T05:19:21.240Z,303
2022-10-01T05:20:27.517Z,336
2022-10-01T05:21:33.815Z,377
2022-10-01T05:22:40.052Z,412
2022-10-01T05:23:46.339Z,478
2022-10-01T05:24:52.594Z,531
2022-10-01T05:25:58.975Z,549
2022-10-01T05:27:05.282Z,598
2022-10-01T05:28:11.674Z,620
2022-10-01T05:29:17.991Z,672
2022-10-01T05:30:24.320Z,712
2022-10-01T05:31:30.668Z,747
2022-10-01T05:32:36.995Z,777
2022-10-01T05:33:43.341Z,817
2022-10-01T05:34:49.687Z,860
2022-10-01T05:35:56.029Z,888
2022-10-01T05:37:02.356Z,912
2022-10-01T05:38:08.690Z,926
2022-10-01T05:39:15.032Z,980
2022-10-01T05:40:21.496Z,1015
2022-10-01T05:41:26.888Z,1070
2022-10-01T05:42:33.149Z,1117
2022-10-01T05:43:39.412Z,1187
2022-10-01T05:44:45.684Z,1236
2022-10-01T05:45:51.936Z,1346
2022-10-01T05:46:58.204Z,1438
2022-10-01T05:48:04.465Z,1532
2022-10-01T05:49:10.717Z,1652
2022-10-01T05:50:16.975Z,1718
2022-10-01T05:51:23.247Z,1769
2022-10-01T05:52:29.484Z,1800
2022-10-01T05:53:35.742Z,1818
2022-10-01T05:54:42.003Z,1829
2022-10-01T05:55:48.260Z,1815
2022-10-01T05:56:54.514Z,1784
2022-10-01T05:58:00.755Z,1799
2022-10-01T05:59:07.007Z,1779
2022-10-01T06:00:13.262Z,1652
2022-10-01T06:01:19.521Z,1607
2022-10-01T06:02:25.760Z,1897
2022-10-01T06:03:32.045Z,1699
2022-10-01T06:04:38.247Z,1602
2022-10-01T06:05:44.497Z,1499
2022-10-01T06:06:50.767Z,1495
2022-10-01T06:07:57.022Z,2079
2022-10-01T06:09:03.329Z,1696
2022-10-01T06:10:09.650Z,1710
2022-10-01T06:11:15.981Z,1715
2022-10-01T06:12:22.297Z,1694
2022-10-01T06:13:28.615Z,1657
2022-10-01T06:14:34.932Z,1600
2022-10-01T06:15:41.280Z,1608
2022-10-01T06:16:47.587Z,1602
2022-10-01T06:17:53.912Z,1602
2022-10-01T06:19:00.242Z,1593
2022-10-01T06:20:06.556Z,1576
2022-10-01T06:21:12.874Z,1576
2022-10-01T06:22:19.198Z,1603
2022-10-01T06:23:25.645Z,1604
2022-10-01T06:24:31.024Z,1636
2022-10-01T06:25:37.257Z,1681
2022-10-01T06:26:43.504Z,1670
2022-10-01T06:27:49.801Z,1703
2022-10-01T06:28:55.996Z,1723
2022-10-01T06:30:02.231Z,1719
2022-10-01T06:31:08.481Z,1704
2022-10-01T06:32:14.723Z,1692
2022-10-01T06:33:20.967Z,1690
2022-10-01T06:34:27.198Z,1714
2022-10-01T06:35:33.451Z,1743
2022-10-01T06:36:39.688Z,1768
2022-10-01T06:37:45.911Z,1809
2022-10-01T06:38:52.156Z,1850
2022-10-01T06:39:58.400Z,1902
2022-10-01T06:41:04.628Z,1932
2022-10-01T06:42:10.864Z,1921
2022-10-01T06:43:17.103Z,1935
2022-10-01T06:44:23.336Z,1940
2022-10-01T06:45:29.571Z,1953
2022-10-01T06:46:35.818Z,1961
2022-10-01T06:47:42.049Z,2003
2022-10-01T06:48:48.283Z,2084
2022-10-01T06:49:54.516Z,2196
2022-10-01T06:51:00.752Z,2346
2022-10-01T06:52:07.059Z,2091
2022-10-01T06:53:13.358Z,2053
2022-10-01T06:54:19.667Z,2191
2022-10-01T06:55:25.980Z,2255
2022-10-01T06:56:32.282Z,2272
2022-10-01T06:57:37.582Z,2370
2022-10-01T06:58:43.811Z,2492
2022-10-01T06:59:50.041Z,2554
2022-10-01T07:00:56.312Z,2724
2022-10-01T07:02:02.491Z,2746
2022-10-01T07:03:08.705Z,2756
2022-10-01T07:04:14.933Z,2684
2022-10-01T07:05:21.206Z,2587
2022-10-01T07:06:27.386Z,2433
2022-10-01T07:07:33.593Z,2236
2022-10-01T07:08:39.825Z,2135
2022-10-01T07:09:46.043Z,2174
2022-10-01T07:10:52.259Z,2184
2022-10-01T07:11:58.485Z,2353
2022-10-01T07:13:04.706Z,2614
2022-10-01T07:14:10.924Z,2800
2022-10-01T07:15:17.135Z,2907
2022-10-01T07:16:23.363Z,2940
2022-10-01T07:17:29.582Z,2856
2022-10-01T07:18:35.804Z,2855
2022-10-01T07:19:42.009Z,2778
2022-10-01T07:20:48.225Z,2698
2022-10-01T07:21:54.432Z,2709
2022-10-01T07:23:00.651Z,2793
2022-10-01T07:24:06.866Z,2894
2022-10-01T07:25:13.171Z,3128
2022-10-01T07:26:18.448Z,3285
2022-10-01T07:27:24.659Z,2841
2022-10-01T07:28:30.885Z,2084
2022-10-01T07:29:37.120Z,1650
2022-10-01T07:30:43.313Z,1656
2022-10-01T07:31:49.524Z,1920
2022-10-01T07:32:55.732Z,2096
2022-10-01T07:34:01.967Z,2107
2022-10-01T07:35:08.164Z,2215
2022-10-01T07:36:14.378Z,2080
2022-10-01T07:37:20.591Z,1853
2022-10-01T07:38:26.800Z,1830
2022-10-01T07:39:33.020Z,1872
2022-10-01T07:40:39.240Z,1933
2022-10-01T07:41:45.525Z,1993
2022-10-01T07:42:51.673Z,2032
2022-10-01T07:43:57.889Z,2004
2022-10-01T07:45:04.099Z,1937
2022-10-01T07:46:10.319Z,1917
2022-10-01T07:47:16.528Z,1881
2022-10-01T07:48:22.743Z,1951
2022-10-01T07:49:28.962Z,1949
2022-10-01T07:50:35.173Z,2090
2022-10-01T07:51:41.392Z,2194
2022-10-01T07:52:47.604Z,2268
2022-10-01T07:53:53.891Z,2315
2022-10-01T07:54:59.180Z,2361
2022-10-01T07:56:05.385Z,2385
2022-10-01T07:57:11.613Z,2391
2022-10-01T07:58:17.817Z,2465
2022-10-01T07:59:24.034Z,2468
2022-10-01T08:00:30.250Z,2536
2022-10-01T08:01:36.462Z,2616
2022-10-01T08:02:42.682Z,2740
2022-10-01T08:03:48.892Z,2843
2022-10-01T08:04:55.103Z,2848
2022-10-01T08:06:01.338Z,2904
2022-10-01T08:07:07.545Z,2863
2022-10-01T08:08:13.767Z,2883
2022-10-01T08:09:19.989Z,2810
2022-10-01T08:10:26.202Z,2779
2022-10-01T08:11:32.418Z,2716
2022-10-01T08:12:38.640Z,2675
2022-10-01T08:13:44.862Z,2613
2022-10-01T08:14:51.077Z,2570
2022-10-01T08:15:57.296Z,2447
2022-10-01T08:17:03.519Z,2375
2022-10-01T08:18:09.720Z,2417
2022-10-01T08:19:15.946Z,2476
2022-10-01T08:20:22.170Z,2492
2022-10-01T08:21:28.373Z,2529
2022-10-01T08:22:34.673Z,2550
2022-10-01T08:23:39.963Z,2577
2022-10-01T08:24:46.183Z,2627
2022-10-01T08:25:52.400Z,2638
2022-10-01T08:26:58.628Z,2664
2022-10-01T08:28:04.837Z,2749
2022-10-01T08:29:11.054Z,2778
2022-10-01T08:30:17.275Z,2870
2022-10-01T08:31:23.491Z,2755
2022-10-01T08:32:29.719Z,2843
2022-10-01T08:33:35.930Z,2964
2022-10-01T08:34:42.157Z,2809
2022-10-01T08:35:48.373Z,2780
2022-10-01T08:36:54.594Z,2926
2022-10-01T08:38:00.829Z,2668
2022-10-01T08:39:07.042Z,2798
2022-10-01T08:40:13.270Z,3060
2022-10-01T08:41:19.466Z,2848
2022-10-01T08:42:25.682Z,2931
2022-10-01T08:43:31.903Z,2765
2022-10-01T08:44:38.122Z,2565
2022-10-01T08:45:44.341Z,2550
2022-10-01T08:46:50.558Z,2788
2022-10-01T08:47:56.776Z,2883
2022-10-01T08:49:02.989Z,2871
2022-10-01T08:50:09.209Z,3153
2022-10-01T08:51:15.499Z,3536
2022-10-01T08:52:20.799Z,3752
2022-10-01T08:53:27.014Z,3655
2022-10-01T08:54:33.229Z,3252
2022-10-01T08:55:39.464Z,3198
2022-10-01T08:56:45.665Z,3052
2022-10-01T08:57:51.876Z,3031
2022-10-01T08:58:58.117Z,3317
2022-10-01T09:00:04.310Z,3218
2022-10-01T09:01:10.517Z,2881
2022-10-01T09:02:16.742Z,3376
2022-10-01T09:03:22.956Z,3222
2022-10-01T09:04:29.155Z,3004
2022-10-01T09:05:35.384Z,3292
2022-10-01T09:06:41.595Z,3450
2022-10-01T09:07:47.811Z,3354
2022-10-01T09:08:54.031Z,3402
2022-10-01T09:10:00.245Z,3356
2022-10-01T09:11:06.449Z,3534
2022-10-01T09:12:12.659Z,3551
2022-10-01T09:13:18.876Z,3618
2022-10-01T09:14:25.091Z,3249
2022-10-01T09:15:31.336Z,3367
2022-10-01T09:16:37.525Z,3431
2022-10-01T09:17:43.737Z,3025
2022-10-01T09:18:49.947Z,2846
2022-10-01T09:19:56.245Z,3225
2022-10-01T09:21:01.525Z,3254
2022-10-01T09:22:07.740Z,3234
2022-10-01T09:23:13.958Z,3526
2022-10-01T09:24:20.168Z,3043
2022-10-01T09:25:26.391Z,3070
2022-10-01T09:26:32.601Z,3035
2022-10-01T09:27:38.806Z,2876
2022-10-01T09:28:45.027Z,2812
2022-10-01T09:29:51.232Z,2824
2022-10-01T09:30:57.453Z,2787
2022-10-01T09:32:03.669Z,2762
2022-10-01T09:33:09.891Z,2552
2022-10-01T09:34:16.098Z,2470
2022-10-01T09:35:22.310Z,2545
2022-10-01T09:36:28.521Z,2565
2022-10-01T09:37:34.739Z,2577
2022-10-01T09:38:40.950Z,2637
2022-10-01T09:39:47.175Z,2719
2022-10-01T09:40:53.379Z,2713
2022-10-01T09:41:59.601Z,2883
2022-10-01T09:43:05.826Z,2285
2022-10-01T09:44:12.035Z,1995
2022-10-01T09:45:18.242Z,2036
2022-10-01T09:46:24.451Z,2191
2022-10-01T09:47:30.676Z,2489
2022-10-01T09:48:36.978Z,2671
2022-10-01T09:49:42.331Z,2805
2022-10-01T09:50:47.663Z,2966
2022-10-01T09:51:52.944Z,2703
2022-10-01T09:52:59.189Z,2308
2022-10-01T09:54:05.392Z,2280
2022-10-01T09:55:11.620Z,2238
2022-10-01T09:56:17.829Z,2347
2022-10-01T09:57:24.039Z,2507
2022-10-01T09:58:30.267Z,2871
2022-10-01T09:59:36.480Z,2752
2022-10-01T10:00:42.690Z,2548
2022-10-01T10:01:48.941Z,2668
2022-10-01T10:02:55.204Z,2928
2022-10-01T10:04:01.447Z,2978
2022-10-01T10:05:07.557Z,3224
2022-10-01T10:06:13.876Z,3500
2022-10-01T10:07:19.996Z,3304
2022-10-01T10:08:26.207Z,3095
2022-10-01T10:09:32.563Z,2720
2022-10-01T10:10:38.812Z,3371
2022-10-01T10:11:44.974Z,3756
2022-10-01T10:12:51.187Z,3800
2022-10-01T10:13:57.461Z,3697
2022-10-01T10:15:03.662Z,3852
2022-10-01T10:16:09.819Z,3425
2022-10-01T10:17:16.102Z,3094
2022-10-01T10:18:22.173Z,2949
2022-10-01T10:19:28.625Z,3473
2022-10-01T10:20:33.912Z,4126
2022-10-01T10:21:40.091Z,4028
2022-10-01T10:22:46.310Z,3404
2022-10-01T10:23:52.407Z,3950
2022-10-01T10:24:58.782Z,3568
2022-10-01T10:26:05.016Z,4010
2022-10-01T10:27:11.156Z,4396
2022-10-01T10:28:17.291Z,2683
2022-10-01T10:29:23.681Z,2438
2022-10-01T10:30:29.735Z,3614
2022-10-01T10:31:35.948Z,3322
2022-10-01T10:32:42.316Z,3518
2022-10-01T10:33:48.384Z,3321
2022-10-01T10:34:54.747Z,3127
2022-10-01T10:36:00.989Z,4099
2022-10-01T10:37:07.046Z,4888
2022-10-01T10:38:13.393Z,4225
2022-10-01T10:39:19.647Z,3203
2022-10-01T10:40:25.846Z,3702
2022-10-01T10:41:31.922Z,4002
2022-10-01T10:42:38.145Z,3224
2022-10-01T10:43:44.534Z,4462
2022-10-01T10:44:50.745Z,4877
2022-10-01T10:45:56.951Z,4244
2022-10-01T10:47:03.163Z,5218
2022-10-01T10:48:09.354Z,6003
2022-10-01T10:49:14.735Z,5903
2022-10-01T10:50:20.958Z,5145
2022-10-01T10:51:27.162Z,3533
2022-10-01T10:52:33.332Z,4078
2022-10-01T10:53:39.620Z,4296
2022-10-01T10:54:45.792Z,4927
2022-10-01T10:55:51.909Z,5394
2022-10-01T10:56:58.185Z,6141
2022-10-01T10:58:04.309Z,5766
2022-10-01T10:59:10.595Z,5357
2022-10-01T11:00:16.861Z,5122
2022-10-01T11:01:22.964Z,4859
2022-10-01T11:02:29.217Z,4447
2022-10-01T11:03:35.434Z,4375
2022-10-01T11:04:41.616Z,4023
2022-10-01T11:05:47.813Z,4085
2022-10-01T11:06:54.028Z,4242
2022-10-01T11:08:00.257Z,4594
2022-10-01T11:09:06.460Z,4733
2022-10-01T11:10:12.687Z,5084
2022-10-01T11:11:18.881Z,4948
2022-10-01T11:12:25.128Z,5011
2022-10-01T11:13:31.311Z,4841
2022-10-01T11:14:37.526Z,4367
2022-10-01T11:15:43.745Z,4057
2022-10-01T11:16:50.029Z,3315
2022-10-01T11:17:55.300Z,3624
2022-10-01T11:19:01.568Z,3054
2022-10-01T11:20:07.800Z,2660
2022-10-01T11:21:13.948Z,3163
2022-10-01T11:22:20.135Z,3268
2022-10-01T11:23:26.345Z,4071
2022-10-01T11:24:32.565Z,3535
2022-10-01T11:25:38.757Z,3098
2022-10-01T11:26:44.976Z,2882
2022-10-01T11:27:51.282Z,2986
2022-10-01T11:28:57.430Z,3568
2022-10-01T11:30:03.607Z,3904
2022-10-01T11:31:09.820Z,5304
2022-10-01T11:32:16.029Z,5921
2022-10-01T11:33:22.240Z,6053
2022-10-01T11:34:28.451Z,5994
2022-10-01T11:35:34.728Z,5122
2022-10-01T11:36:40.944Z,5216
2022-10-01T11:37:47.128Z,5135
2022-10-01T11:38:53.307Z,3638
2022-10-01T11:39:59.509Z,3406
2022-10-01T11:41:05.709Z,4691
2022-10-01T11:42:11.914Z,4729
2022-10-01T11:43:18.123Z,4752
2022-10-01T11:44:24.335Z,4434
2022-10-01T11:45:30.634Z,5359
2022-10-01T11:46:35.904Z,7570
2022-10-01T11:47:42.173Z,6929
2022-10-01T11:48:48.317Z,5734
2022-10-01T11:49:54.625Z,6305
2022-10-01T11:51:00.753Z,7217
2022-10-01T11:52:06.936Z,5668
2022-10-01T11:53:13.142Z,5839
2022-10-01T11:54:19.346Z,4556
2022-10-01T11:55:25.569Z,3791
2022-10-01T11:56:31.756Z,3891
2022-10-01T11:57:38.035Z,4671
2022-10-01T11:58:44.174Z,4653
2022-10-01T11:59:50.402Z,5571
2022-10-01T12:00:56.578Z,6380
2022-10-01T12:02:02.879Z,5851
2022-10-01T12:03:08.974Z,7037
2022-10-01T12:04:15.188Z,5106
2022-10-01T12:05:21.379Z,8581
2022-10-01T12:06:27.708Z,8028
2022-10-01T12:07:33.782Z,7091
2022-10-01T12:08:39.980Z,5850
2022-10-01T12:09:46.207Z,4231
2022-10-01T12:10:52.417Z,4070
2022-10-01T12:11:58.620Z,4464
2022-10-01T12:13:04.803Z,5963
2022-10-01T12:14:11.074Z,7267
2022-10-01T12:15:16.369Z,5587
2022-10-01T12:16:22.627Z,3764
2022-10-01T12:17:28.780Z,4088
2022-10-01T12:18:34.018Z,3953
2022-10-01T12:19:40.288Z,5908
2022-10-01T12:20:46.376Z,5681
2022-10-01T12:21:51.612Z,3848
2022-10-01T12:22:57.790Z,3705
2022-10-01T12:24:03.028Z,3306
2022-10-01T12:25:09.210Z,3486
2022-10-01T12:26:15.413Z,4108
2022-10-01T12:27:21.638Z,6495
2022-10-01T12:28:27.812Z,5921
2022-10-01T12:29:34.055Z,5614
2022-10-01T12:30:40.213Z,4267
2022-10-01T12:31:46.392Z,4902
2022-10-01T12:32:52.676Z,4006
2022-10-01T12:33:58.873Z,4749
2022-10-01T12:35:05.041Z,4476
2022-10-01T12:36:11.209Z,4523
2022-10-01T12:37:16.471Z,4072
2022-10-01T12:38:22.605Z,4376
2022-10-01T12:39:28.780Z,3314
2022-10-01T12:40:34.973Z,2812
2022-10-01T12:41:41.173Z,2569
2022-10-01T12:42:47.367Z,4066
2022-10-01T12:43:53.562Z,6140
2022-10-01T12:44:59.803Z,7403
2022-10-01T12:46:05.952Z,7363
2022-10-01T12:47:12.144Z,7823
2022-10-01T12:48:18.327Z,8466
2022-10-01T12:49:24.569Z,9387
2022-10-01T12:50:30.721Z,8767
2022-10-01T12:51:35.913Z,8459
2022-10-01T12:52:42.101Z,6646
2022-10-01T12:53:48.287Z,7548
2022-10-01T12:54:54.483Z,12453
2022-10-01T12:56:00.679Z,8761
2022-10-01T12:57:06.863Z,11830
2022-10-01T12:58:13.047Z,11712
2022-10-01T12:59:19.227Z,12909
2022-10-01T13:00:25.416Z,11459
2022-10-01T13:01:31.582Z,14892
2022-10-01T13:02:37.766Z,11012
2022-10-01T13:03:43.987Z,7530
2022-10-01T13:04:50.129Z,5251
2022-10-01T13:05:55.311Z,12039
2022-10-01T13:07:01.489Z,14607
2022-10-01T13:08:07.664Z,12588
2022-10-01T13:09:13.879Z,11963
2022-10-01T13:10:20.010Z,14777
2022-10-01T13:11:26.165Z,10697
2022-10-01T13:12:32.328Z,11439
2022-10-01T13:13:38.505Z,8906
2022-10-01T13:14:44.666Z,9098
2022-10-01T13:15:50.835Z,9521
2022-10-01T13:16:57.004Z,10660
2022-10-01T13:18:03.168Z,5411
2022-10-01T13:19:09.426Z,7484
2022-10-01T13:20:14.518Z,6270
2022-10-01T13:21:20.675Z,4974
2022-10-01T13:22:26.906Z,7587
2022-10-01T13:23:33.093Z,6676
2022-10-01T13:24:39.210Z,6860
2022-10-01T13:25:45.362Z,7269
2022-10-01T13:26:51.500Z,7448
2022-10-01T13:27:57.672Z,6787
2022-10-01T13:29:03.829Z,9916
2022-10-01T13:30:09.997Z,8687
2022-10-01T13:31:16.164Z,8849
2022-10-01T13:32:22.325Z,8820
2022-10-01T13:33:28.486Z,8184
2022-10-01T13:34:33.676Z,9447
2022-10-01T13:35:39.826Z,8140
2022-10-01T13:36:45.985Z,7580
2022-10-01T13:37:52.148Z,8411
2022-10-01T13:38:58.315Z,6694
2022-10-01T13:40:04.481Z,5608
2022-10-01T13:41:10.652Z,6832
2022-10-01T13:42:16.847Z,7406
2022-10-01T13:43:23.031Z,7421
2022-10-01T13:44:29.145Z,7314
2022-10-01T13:45:35.302Z,7635
2022-10-01T13:46:41.469Z,8094
2022-10-01T13:47:47.635Z,8160
2022-10-01T13:48:52.821Z,8140
2022-10-01T13:49:58.980Z,7706
2022-10-01T13:51:05.153Z,6972
2022-10-01T13:52:11.371Z,7238
2022-10-01T13:53:17.513Z,6902
2022-10-01T13:54:23.693Z,6644
2022-10-01T13:55:29.805Z,6328
2022-10-01T13:56:35.994Z,6024
2022-10-01T13:57:42.216Z,5743
2022-10-01T13:58:48.368Z,5775
2022-10-01T13:59:54.488Z,5856
2022-10-01T14:01:00.657Z,5582
2022-10-01T14:02:06.828Z,5462
2022-10-01T14:03:12.010Z,5197
2022-10-01T14:04:18.171Z,4808
2022-10-01T14:05:24.348Z,5142
2022-10-01T14:06:30.700Z,5185
2022-10-01T14:07:36.752Z,4965
2022-10-01T14:08:42.865Z,5042
2022-10-01T14:09:49.059Z,5108
2022-10-01T14:10:55.205Z,5786
2022-10-01T14:12:01.420Z,6210
2022-10-01T14:13:07.544Z,6899
2022-10-01T14:14:13.708Z,6847
2022-10-01T14:15:19.982Z,6945
2022-10-01T14:16:26.184Z,7052
2022-10-01T14:17:31.234Z,7123
2022-10-01T14:18:37.503Z,6591
2022-10-01T14:19:43.573Z,6149
2022-10-01T14:20:49.748Z,5910
2022-10-01T14:21:55.972Z,5401
2022-10-01T14:23:02.166Z,5266
2022-10-01T14:24:08.268Z,3427
2022-10-01T14:25:14.436Z,6920
2022-10-01T14:26:20.604Z,7289
2022-10-01T14:27:26.781Z,7643
2022-10-01T14:28:32.967Z,8134
2022-10-01T14:29:39.119Z,8195
2022-10-01T14:30:45.292Z,7909
2022-10-01T14:31:50.474Z,7763
2022-10-01T14:32:56.639Z,7484
2022-10-01T14:34:02.803Z,7203
2022-10-01T14:35:08.963Z,6868
2022-10-01T14:36:15.141Z,6658
2022-10-01T14:37:21.286Z,6405
2022-10-01T14:38:27.441Z,6199
2022-10-01T14:39:33.623Z,6081
2022-10-01T14:40:39.769Z,6098
2022-10-01T14:41:46.046Z,6554
2022-10-01T14:42:52.092Z,6055
2022-10-01T14:43:58.244Z,4920
2022-10-01T14:45:04.415Z,4885
2022-10-01T14:46:09.579Z,5021
2022-10-01T14:47:15.751Z,4884
2022-10-01T14:48:21.907Z,3366
2022-10-01T14:49:28.101Z,6133
2022-10-01T14:50:34.235Z,4481
2022-10-01T14:51:40.408Z,5187
2022-10-01T14:52:46.578Z,5449
2022-10-01T14:53:52.767Z,5822
2022-10-01T14:54:58.936Z,5744
2022-10-01T14:56:05.071Z,5796
2022-10-01T14:57:11.229Z,5062
2022-10-01T14:58:17.402Z,5018
2022-10-01T14:59:23.607Z,2151
2022-10-01T15:00:28.745Z,5971
2022-10-01T15:01:34.915Z,7443
2022-10-01T15:02:41.108Z,7031
2022-10-01T15:03:47.251Z,3833
2022-10-01T15:04:53.438Z,5981
2022-10-01T15:05:59.571Z,4598
2022-10-01T15:07:05.743Z,5580
2022-10-01T15:08:11.907Z,3158
2022-10-01T15:09:18.106Z,4280
2022-10-01T15:10:24.236Z,4554
2022-10-01T15:11:30.504Z,4863
2022-10-01T15:12:36.586Z,6390